• Join FlightAware (Why Join?)
  • Login
  • US Flag 
11:33AM EDT


 

Airport Tracker/Info


-or-


 

Live Flight TrackerFlight Track Log ✈ AAL297 ✈ 05-May-2013 ✈ KLAX - PHNL

Flight Track Log - Related Links

Times and Time Zones

All times are in EDT time to prevent confusion due to time zone crossing. See the AAL297 flight status page for this flight to view local times or setup timezone preferences in your user account.

Time Position Orientation Groundspeed Altitude Reporting Facility
EDT Latitude Longitude Course Direction KTS MPH feet Rate Location/Type
07:57PM 33.9400 -118.3740 90° East 175 201 1,500  Level FlightAware
07:57PM 33.9400 -118.3550 90° East 184 212 2,200 1,680 Climbing FlightAware
07:58PM 33.9390 -118.3220 92° East 215 247 2,900 1,740 Climbing FlightAware
07:58PM 33.9380 -118.2880 92° East 234 269 3,800 2,220 Climbing FlightAware
07:59PM 33.9320 -118.2720 114° Southeast 233 268 4,400 2,760 Climbing FlightAware
07:59PM 33.9180 -118.2590 142° Southeast 234 269 5,200 2,760 Climbing FlightAware
07:59PM 33.9030 -118.2570 174° South 239 275 5,800 2,160 Climbing FlightAware
07:59PM 33.8920 -118.2600 193° South 246 283 6,100 2,400 Climbing FlightAware
08:00PM 33.8770 -118.2730 216° Southwest 251 289 6,800 2,400 Climbing FlightAware
08:00PM 33.8680 -118.2890 236° Southwest 257 296 7,300 2,400 Climbing FlightAware
08:00PM 33.8540 -118.3280 247° West 253 291 8,600 2,220 Climbing FlightAware
08:00PM 33.8490 -118.3410 245° Southwest 260 299 8,800 1,200 Climbing FlightAware
08:01PM 33.8440 -118.3640 255° West 274 315 9,100 1,500 Climbing FlightAware
08:01PM 33.8540 -118.4240 281° West 284 327 10,200 1,440 Climbing FlightAware
08:02PM 33.8720 -118.4930 287° West 313 360 11,200 1,260 Climbing FlightAware
08:03PM 33.8900 -118.5640 287° West 340 391 12,000 1,200 Climbing FlightAware
08:04PM 33.9120 -118.6470 288° West 345 397 12,900 660 Climbing FlightAware
08:04PM 33.9310 -118.7200 287° West 343 395 13,000 60 Climbing FlightAware
08:05PM 33.9520 -118.8000 288° West 340 391 13,000  Level FlightAware
08:06PM 33.9720 -118.8710 289° West 344 396 13,000 300 Level FlightAware
08:06PM 34.0030 -118.9300 302° West 353 406 13,400 1,500 Climbing FlightAware
08:07PM 34.0510 -119.0090 306° West 354 407 15,200 2,040 Climbing FlightAware
08:08PM 34.0900 -119.0730 306° West 362 417 16,500 1,980 Climbing FlightAware
08:08PM 34.1320 -119.1400 307° West 369 425 17,900 1,800 Climbing FlightAware
08:09PM 34.1780 -119.2160 306° West 380 437 19,100 1,680 Climbing FlightAware
08:10PM 34.2200 -119.2850 306° West 389 448 20,300 1,800 Climbing FlightAware
08:11PM 34.2680 -119.3640 306° West 395 455 21,700 1,680 Climbing FlightAware
08:11PM 34.3050 -119.4250 306° West 405 466 22,600 1,620 Climbing FlightAware
08:12PM 34.3560 -119.5100 306° West 414 476 23,900 960 Climbing FlightAware
08:13PM 34.3960 -119.5770 306° West 414 476 24,000 1,200 Climbing FlightAware
08:13PM 34.4490 -119.6660 306° West 423 487 25,600 2,280 Climbing FlightAware
08:14PM 34.5010 -119.7510 307° West 433 498 27,300 1,800 Climbing FlightAware
08:15PM 34.5600 -119.8340 311° West 446 513 28,200 1,200 Climbing FlightAware
08:15PM 34.6160 -119.9100 312° West 451 519 29,000 960 Climbing FlightAware
08:16PM 34.6970 -120.0200 312° West 456 525 29,800 1,320 Climbing FlightAware
08:17PM 34.7560 -120.0990 312° West 458 527 31,200 2,220 Climbing FlightAware
08:18PM 34.8120 -120.1750 312° West 441 507 32,800 1,200 Climbing FlightAware
08:19PM 34.8870 -120.2790 311° West 442 509 33,200 720 Climbing FlightAware
08:19PM 34.9430 -120.3560 312° West 443 510 34,000 600 Climbing FlightAware
08:20PM 34.9890 -120.4200 311° West 443 510 34,000 1,380 Level FlightAware
08:21PM 35.0620 -120.5180 312° West 433 498 36,000 1,320 Climbing FlightAware
08:22PM 35.1220 -120.6020 311° West 432 497 36,000  Level FlightAware
08:22PM 35.1750 -120.6750 312° West 433 498 36,000  Level FlightAware
08:23PM 35.2330 -120.7550 312° West 435 501 36,000  Level FlightAware
08:24PM 35.2810 -120.8230 311° West 435 501 36,000  Level FlightAware
08:24PM 35.3490 -120.9160 312° West 438 504 36,000  Level FlightAware
08:25PM 35.3910 -120.9750 311° West 440 506 36,000  Level FlightAware
08:26PM 35.4530 -121.0690 309° West 437 503 36,000  Level FlightAware
08:27PM 35.5000 -121.1670 301° West 436 502 36,000  Level FlightAware
08:27PM 35.5420 -121.2600 299° West 436 502 36,000  Level FlightAware
08:28PM 35.5930 -121.3970 295° West 440 506 36,000  Level FlightAware
08:29PM 35.6330 -121.4970 296° West 444 511 36,000  Level FlightAware
08:30PM 35.6640 -121.5760 296° West 444 511 36,000  Level FlightAware
08:30PM 35.7070 -121.6800 297° West 449 517 36,000  Level FlightAware
08:31PM 35.7520 -121.8130 293° West 445 512 36,000  Level FlightAware
08:32PM 35.7730 -121.9090 285° West 445 512 36,000  Level FlightAware
08:33PM 35.7910 -121.9930 285° West 445 512 36,000  Level FlightAware
08:34PM 35.8100 -122.1570 278° West 444 511 36,000  Level FlightAware
08:34PM 35.8290 -122.2780 281° West 443 510 36,000  Level FlightAware
08:35PM 35.8430 -122.3680 281° West 442 509 36,000  Level FlightAware
08:36PM 35.8600 -122.4750 281° West 443 510 36,000  Level FlightAware
08:36PM 35.8770 -122.5860 281° West 443 510 36,000  Level FlightAware
08:37PM 35.8920 -122.6820 281° West 443 510 36,000  Level FlightAware
08:38PM 35.8900 -122.6720 104° East 36,000  Level FlightAware
08:39PM 35.9110 -122.8080 281° West 440 506 36,000  Level FlightAware
08:39PM 35.9250 -122.9090 280° West 440 506 36,000  Level FlightAware
08:40PM 35.9370 -122.9930 280° West 440 506 36,000  Level FlightAware
08:41PM 35.9490 -123.0770 280° West 440 506 36,000  Level FlightAware
08:41PM 35.9610 -123.1610 280° West 440 506 36,000  Level FlightAware
08:42PM 35.9730 -123.2460 280° West 440 506 36,000  Level FlightAware
08:43PM 35.9880 -123.3510 280° West 440 506 36,000  Level FlightAware
08:43PM 36.0290 -123.6120 281° West 436 502 36,000  Level FlightAware
08:44PM 36.0410 -123.6920 281° West 436 502 36,000  Level FlightAware
08:45PM 36.0550 -123.7970 279° West 436 502 36,000  Level FlightAware
08:46PM 36.0670 -123.8800 280° West 436 502 36,000  Level FlightAware
08:46PM 36.0790 -123.9640 280° West 436 502 36,000  Level FlightAware
08:47PM 36.0910 -124.0470 280° West 436 502 36,000  Level FlightAware
08:48PM 36.1150 -124.2130 280° West 440 506 36,000  Level FlightAware
08:48PM 36.1280 -124.3150 279° West 440 506 36,000  Level FlightAware
08:49PM 36.1380 -124.3990 278° West 440 506 36,000  Level FlightAware
08:50PM 36.1700 -124.5875 278° West 440 506 36,000  Level Oakland Center
08:51PM 36.1894 -124.7372 279° West 441 507 36,000  Level Oakland Center
08:52PM 36.2089 -124.8881 279° West 443 510 36,000  Level Oakland Center
08:53PM 36.2311 -125.0489 280° West 443 510 36,000  Level Oakland Center
08:55PM 36.2559 -125.2478 279° West  Level FlightAware Approximate
09:02PM 36.3761 -126.2565 279° West  Level FlightAware Approximate
09:03PM 36.3926 -126.4009 278° West  Level FlightAware Approximate
09:04PM 36.4089 -126.5453 278° West  Level FlightAware Approximate
09:05PM 36.4250 -126.6898 278° West  Level FlightAware Approximate
09:06PM 36.4410 -126.8343 278° West  Level FlightAware Approximate
09:07PM 36.4331 -126.9759 250° West  Level FlightAware Approximate
09:08PM 36.3938 -127.1133 250° West  Level FlightAware Approximate
09:09PM 36.3543 -127.2505 250° West  Level FlightAware Approximate
09:10PM 36.3145 -127.3880 250° West  Level FlightAware Approximate
09:11PM 36.2745 -127.5255 250° West  Level FlightAware Approximate
09:12PM 36.2344 -127.6627 250° West  Level FlightAware Approximate
09:13PM 36.1939 -127.7991 250° West  Level FlightAware Approximate
09:14PM 36.1532 -127.9353 250° West  Level FlightAware Approximate
09:15PM 36.1124 -128.0713 250° West  Level FlightAware Approximate
09:16PM 36.0714 -128.2072 250° West  Level FlightAware Approximate
09:17PM 36.0303 -128.3430 250° West  Level FlightAware Approximate
09:18PM 35.9890 -128.4787 249° West  Level FlightAware Approximate
09:19PM 35.9476 -128.6142 249° West  Level FlightAware Approximate
09:20PM 35.9060 -128.7495 249° West  Level FlightAware Approximate
09:21PM 35.8643 -128.8847 249° West  Level FlightAware Approximate
09:22PM 35.8224 -129.0198 249° West  Level FlightAware Approximate
09:23PM 35.7803 -129.1547 249° West  Level FlightAware Approximate
09:24PM 35.7382 -129.2895 249° West  Level FlightAware Approximate
09:25PM 35.6958 -129.4241 249° West  Level FlightAware Approximate
09:26PM 35.6533 -129.5586 249° West  Level FlightAware Approximate
09:27PM 35.6107 -129.6930 249° West  Level FlightAware Approximate
09:28PM 35.5679 -129.8272 249° West  Level FlightAware Approximate
09:29PM 35.5250 -129.9613 249° West  Level FlightAware Approximate
09:30PM 35.4819 -130.0952 248° West  Level FlightAware Approximate
09:31PM 35.4387 -130.2290 248° West  Level FlightAware Approximate
09:32PM 35.3953 -130.3626 248° West  Level FlightAware Approximate
09:33PM 35.3517 -130.4961 248° West  Level FlightAware Approximate
09:34PM 35.3081 -130.6295 248° West  Level FlightAware Approximate
09:35PM 35.2643 -130.7626 248° West  Level FlightAware Approximate
09:36PM 35.2203 -130.8957 248° West  Level FlightAware Approximate
09:37PM 35.1762 -131.0286 248° West  Level FlightAware Approximate
09:38PM 35.1319 -131.1614 248° West  Level FlightAware Approximate
09:39PM 35.0875 -131.2940 248° West  Level FlightAware Approximate
09:40PM 35.0430 -131.4265 248° West  Level FlightAware Approximate
09:41PM 34.9983 -131.5588 248° West  Level FlightAware Approximate
09:42PM 34.9535 -131.6910 248° West  Level FlightAware Approximate
09:43PM 34.9085 -131.8231 247° West  Level FlightAware Approximate
09:44PM 34.8634 -131.9550 247° West  Level FlightAware Approximate
09:45PM 34.8181 -132.0867 247° West  Level FlightAware Approximate
09:46PM 34.7727 -132.2184 247° West  Level FlightAware Approximate
09:47PM 34.7272 -132.3498 247° West  Level FlightAware Approximate
09:48PM 34.6815 -132.4811 247° West  Level FlightAware Approximate
09:49PM 34.6357 -132.6123 247° West  Level FlightAware Approximate
09:50PM 34.5897 -132.7433 247° West  Level FlightAware Approximate
09:51PM 34.5436 -132.8742 247° West  Level FlightAware Approximate
09:52PM 34.4974 -133.0050 247° West  Level FlightAware Approximate
09:53PM 34.4510 -133.1356 247° West  Level FlightAware Approximate
09:54PM 34.4045 -133.2660 247° West  Level FlightAware Approximate
09:55PM 34.3578 -133.3963 247° West  Level FlightAware Approximate
09:56PM 34.3110 -133.5265 247° West  Level FlightAware Approximate
09:57PM 34.2641 -133.6565 246° West  Level FlightAware Approximate
09:58PM 34.2170 -133.7864 246° West  Level FlightAware Approximate
09:59PM 34.1698 -133.9161 246° West  Level FlightAware Approximate
10:00PM 34.1225 -134.0457 246° West  Level FlightAware Approximate
10:01PM 34.0750 -134.1751 246° West  Level FlightAware Approximate
10:02PM 34.0274 -134.3044 246° West  Level FlightAware Approximate
10:03PM 33.9796 -134.4335 246° West  Level FlightAware Approximate
10:03PM 34.0167 -134.3500 246° West 434 499 36,000  Level Oakland Oceanic (ODAPS)
10:04PM 33.9316 -134.5625 246° West  Level FlightAware Approximate
10:05PM 33.8835 -134.6913 246° West  Level FlightAware Approximate
10:06PM 33.8354 -134.8200 246° West  Level FlightAware Approximate
10:07PM 33.7870 -134.9485 246° West  Level FlightAware Approximate
10:08PM 33.7385 -135.0769 246° West  Level FlightAware Approximate
10:09PM 33.4709 -135.7981 245° Southwest 434 499 36,000  Level FlightAware Transoceanic
10:10PM 33.4205 -135.9288 245° Southwest 434 499 36,000  Level FlightAware Transoceanic
10:11PM 33.3699 -136.0594 245° Southwest 434 499 36,000  Level FlightAware Transoceanic
10:12PM 33.3192 -136.1898 245° Southwest 434 499 36,000  Level FlightAware Transoceanic
10:13PM 33.2683 -136.3201 245° Southwest 434 499 36,000  Level FlightAware Transoceanic
10:14PM 33.2174 -136.4502 245° Southwest 434 499 36,000  Level FlightAware Transoceanic
10:15PM 33.1662 -136.5802 245° Southwest 434 499 36,000  Level FlightAware Transoceanic
10:16PM 33.1150 -136.7100 245° Southwest 434 499 36,000  Level FlightAware Transoceanic
10:17PM 33.0636 -136.8397 245° Southwest 434 499 36,000  Level FlightAware Transoceanic
10:18PM 33.0121 -136.9692 245° Southwest 434 499 36,000  Level FlightAware Transoceanic
10:19PM 32.9604 -137.0986 245° Southwest 434 499 36,000  Level FlightAware Transoceanic
10:20PM 32.9086 -137.2278 244° Southwest 434 499 36,000  Level FlightAware Transoceanic
10:21PM 32.8567 -137.3568 244° Southwest 434 499 36,000  Level FlightAware Transoceanic
10:22PM 32.8046 -137.4857 244° Southwest 434 499 36,000  Level FlightAware Transoceanic
10:23PM 32.7524 -137.6145 244° Southwest 434 499 36,000  Level FlightAware Transoceanic
10:24PM 32.7001 -137.7431 244° Southwest 434 499 36,000  Level FlightAware Transoceanic
10:25PM 32.6476 -137.8716 244° Southwest 434 499 36,000  Level FlightAware Transoceanic
10:26PM 32.5951 -137.9999 244° Southwest 434 499 36,000  Level FlightAware Transoceanic
10:27PM 32.5423 -138.1280 244° Southwest 434 499 36,000  Level FlightAware Transoceanic
10:28PM 32.4895 -138.2560 244° Southwest 434 499 36,000  Level FlightAware Transoceanic
10:29PM 32.4365 -138.3839 244° Southwest 434 499 36,000  Level FlightAware Transoceanic
10:30PM 32.3834 -138.5116 244° Southwest 434 499 36,000  Level FlightAware Transoceanic
10:31PM 32.3302 -138.6391 244° Southwest 434 499 36,000  Level FlightAware Transoceanic
10:32PM 32.2768 -138.7666 244° Southwest 434 499 36,000  Level FlightAware Transoceanic
10:33PM 32.2233 -138.8938 244° Southwest 434 499 36,000  Level FlightAware Transoceanic
10:34PM 32.1697 -139.0209 243° Southwest 434 499 36,000  Level FlightAware Transoceanic
10:35PM 32.1160 -139.1479 243° Southwest 434 499 36,000  Level FlightAware Transoceanic
10:36PM 32.0621 -139.2747 243° Southwest 434 499 36,000  Level FlightAware Transoceanic
10:37PM 32.0081 -139.4013 243° Southwest 434 499 36,000  Level FlightAware Transoceanic
10:38PM 31.9540 -139.5278 243° Southwest 434 499 36,000  Level FlightAware Transoceanic
10:39PM 31.8997 -139.6542 243° Southwest 434 499 36,000  Level FlightAware Transoceanic
10:40PM 31.8454 -139.7804 243° Southwest 434 499 36,000  Level FlightAware Transoceanic
10:41PM 31.7909 -139.9065 243° Southwest 434 499 36,000  Level FlightAware Transoceanic
10:42PM 31.7363 -140.0324 243° Southwest 434 499 36,000  Level FlightAware Transoceanic
10:43PM 31.6815 -140.1581 243° Southwest 434 499 36,000  Level FlightAware Transoceanic
10:44PM 31.6266 -140.2837 243° Southwest 434 499 36,000  Level FlightAware Transoceanic
10:45PM 31.5717 -140.4092 243° Southwest 434 499 36,000  Level FlightAware Transoceanic
10:46PM 31.5166 -140.5345 243° Southwest 434 499 36,000  Level FlightAware Transoceanic
10:47PM 31.4613 -140.6597 243° Southwest 434 499 36,000  Level FlightAware Transoceanic
10:48PM 31.4060 -140.7847 243° Southwest 434 499 36,000  Level FlightAware Transoceanic
10:49PM 31.3505 -140.9096 242° Southwest 434 499 36,000  Level FlightAware Transoceanic
10:50PM 31.2949 -141.0343 242° Southwest 434 499 36,000  Level FlightAware Transoceanic
10:51PM 31.2392 -141.1589 242° Southwest 434 499 36,000  Level FlightAware Transoceanic
10:52PM 31.1833 -141.2833 242° Southwest 434 499 36,000  Level FlightAware Transoceanic
10:53PM 31.1267 -141.4088 242° Southwest 434 499 36,000  Level FlightAware Transoceanic
10:54PM 31.0700 -141.5341 242° Southwest 434 499 36,000  Level FlightAware Transoceanic
10:55PM 31.0131 -141.6592 242° Southwest 434 499 36,000  Level FlightAware Transoceanic
10:55PM 31.1833 -141.2833 242° Southwest 429 494 36,000  Level Oakland Oceanic (ODAPS)
10:56PM 30.9562 -141.7842 242° Southwest 434 499 36,000  Level FlightAware Transoceanic
10:57PM 30.8991 -141.9091 242° Southwest 434 499 36,000  Level FlightAware Transoceanic
10:58PM 30.8418 -142.0338 242° Southwest 434 499 36,000  Level FlightAware Transoceanic
10:59PM 30.7845 -142.1584 242° Southwest 434 499 36,000  Level FlightAware Transoceanic
11:00PM 30.7271 -142.2828 242° Southwest 434 499 36,000  Level FlightAware Transoceanic
11:01PM 30.7353 -142.2650 242° Southwest 429 494 36,000  Level FlightAware Transoceanic
11:02PM 30.6787 -142.3871 242° Southwest 429 494 36,000  Level FlightAware Transoceanic
11:03PM 30.6221 -142.5090 242° Southwest 429 494 36,000  Level FlightAware Transoceanic
11:04PM 30.5653 -142.6308 242° Southwest 429 494 36,000  Level FlightAware Transoceanic
11:05PM 30.5085 -142.7524 241° Southwest 429 494 36,000  Level FlightAware Transoceanic
11:06PM 30.4515 -142.8739 241° Southwest 429 494 36,000  Level FlightAware Transoceanic
11:07PM 30.3944 -142.9952 241° Southwest 429 494 36,000  Level FlightAware Transoceanic
11:08PM 30.3372 -143.1165 241° Southwest 429 494 36,000  Level FlightAware Transoceanic
11:09PM 30.2799 -143.2375 241° Southwest 429 494 36,000  Level FlightAware Transoceanic
11:10PM 30.2225 -143.3584 241° Southwest 429 494 36,000  Level FlightAware Transoceanic
11:11PM 30.1649 -143.4792 241° Southwest 429 494 36,000  Level FlightAware Transoceanic
11:12PM 30.1073 -143.5999 241° Southwest 429 494 36,000  Level FlightAware Transoceanic
11:13PM 30.0495 -143.7204 241° Southwest 429 494 36,000  Level FlightAware Transoceanic
11:14PM 29.9916 -143.8407 241° Southwest 429 494 36,000  Level FlightAware Transoceanic
11:15PM 29.9336 -143.9610 241° Southwest 429 494 36,000  Level FlightAware Transoceanic
11:16PM 29.8756 -144.0810 241° Southwest 429 494 36,000  Level FlightAware Transoceanic
11:17PM 29.8174 -144.2010 241° Southwest 429 494 36,000  Level FlightAware Transoceanic
11:18PM 29.7591 -144.3208 241° Southwest 429 494 36,000  Level FlightAware Transoceanic
11:19PM 29.7006 -144.4404 241° Southwest 429 494 36,000  Level FlightAware Transoceanic
11:20PM 29.6421 -144.5600 241° Southwest 429 494 36,000  Level FlightAware Transoceanic
11:21PM 29.5835 -144.6793 241° Southwest 429 494 36,000  Level FlightAware Transoceanic
11:22PM 29.5248 -144.7986 240° Southwest 429 494 36,000  Level FlightAware Transoceanic
11:23PM 29.4659 -144.9177 240° Southwest 429 494 36,000  Level FlightAware Transoceanic
11:24PM 29.4070 -145.0367 240° Southwest 429 494 36,000  Level FlightAware Transoceanic
11:25PM 29.3479 -145.1555 240° Southwest 429 494 36,000  Level FlightAware Transoceanic
11:26PM 29.2888 -145.2742 240° Southwest 429 494 36,000  Level FlightAware Transoceanic
11:27PM 29.2295 -145.3927 240° Southwest 429 494 36,000  Level FlightAware Transoceanic
11:28PM 29.1701 -145.5112 240° Southwest 429 494 36,000  Level FlightAware Transoceanic
11:29PM 29.1107 -145.6294 240° Southwest 429 494 36,000  Level FlightAware Transoceanic
11:30PM 29.0511 -145.7476 240° Southwest 429 494 36,000  Level FlightAware Transoceanic
11:31PM 28.9914 -145.8656 240° Southwest 429 494 36,000  Level FlightAware Transoceanic
11:32PM 28.9316 -145.9834 240° Southwest 429 494 36,000  Level FlightAware Transoceanic
11:33PM 28.8718 -146.1012 240° Southwest 429 494 36,000  Level FlightAware Transoceanic
11:34PM 28.8118 -146.2188 240° Southwest 429 494 36,000  Level FlightAware Transoceanic
11:35PM 28.7517 -146.3362 240° Southwest 429 494 36,000  Level FlightAware Transoceanic
11:36PM 28.6915 -146.4536 240° Southwest 429 494 36,000  Level FlightAware Transoceanic
11:37PM 28.6312 -146.5708 240° Southwest 429 494 36,000  Level FlightAware Transoceanic
11:38PM 28.5708 -146.6878 240° Southwest 429 494 36,000  Level FlightAware Transoceanic
11:39PM 28.5103 -146.8048 239° Southwest 429 494 36,000  Level FlightAware Transoceanic
11:40PM 28.4498 -146.9216 239° Southwest 429 494 36,000  Level FlightAware Transoceanic
11:41PM 28.3891 -147.0382 239° Southwest 429 494 36,000  Level FlightAware Transoceanic
11:42PM 28.3283 -147.1547 239° Southwest 429 494 36,000  Level FlightAware Transoceanic
11:43PM 28.2674 -147.2711 239° Southwest 429 494 36,000  Level FlightAware Transoceanic
11:44PM 28.2064 -147.3874 239° Southwest 429 494 36,000  Level FlightAware Transoceanic
11:45PM 28.1453 -147.5035 239° Southwest 429 494 36,000  Level FlightAware Transoceanic
11:46PM 28.0841 -147.6195 239° Southwest 429 494 36,000  Level FlightAware Transoceanic
11:47PM 28.0229 -147.7353 239° Southwest 429 494 36,000  Level FlightAware Transoceanic
11:48PM 27.9615 -147.8511 239° Southwest 429 494 36,000  Level FlightAware Transoceanic
11:49PM 27.9000 -147.9667 239° Southwest 429 494 36,000  Level FlightAware Transoceanic
11:50PM 27.8371 -148.0845 239° Southwest 429 494 36,000  Level FlightAware Transoceanic
11:51PM 27.7740 -148.2021 239° Southwest 429 494 36,000  Level FlightAware Transoceanic
11:52PM 27.7109 -148.3196 239° Southwest 429 494 36,000  Level FlightAware Transoceanic
11:52PM 27.9000 -147.9667 239° Southwest 429 494 36,000  Level Oakland Oceanic (ODAPS)
11:53PM 27.6477 -148.4370 239° Southwest 429 494 36,000  Level FlightAware Transoceanic
11:54PM 27.5843 -148.5542 239° Southwest 429 494 36,000  Level FlightAware Transoceanic
11:55PM 27.5209 -148.6713 239° Southwest 429 494 36,000  Level FlightAware Transoceanic
11:56PM 27.4574 -148.7883 238° Southwest 429 494 36,000  Level FlightAware Transoceanic
11:57PM 27.3937 -148.9051 238° Southwest 429 494 36,000  Level FlightAware Transoceanic
11:58PM 27.4028 -148.8884 238° Southwest 429 494 36,000  Level FlightAware Transoceanic
11:59PM 27.3403 -149.0030 238° Southwest 429 494 36,000  Level FlightAware Transoceanic
12:00AM 27.2776 -149.1175 238° Southwest 429 494 36,000  Level FlightAware Transoceanic
12:01AM 27.2148 -149.2319 238° Southwest 429 494 36,000  Level FlightAware Transoceanic
12:02AM 27.1520 -149.3461 238° Southwest 429 494 36,000  Level FlightAware Transoceanic
12:03AM 27.0891 -149.4603 238° Southwest 429 494 36,000  Level FlightAware Transoceanic
12:04AM 27.0260 -149.5742 238° Southwest 429 494 36,000  Level FlightAware Transoceanic
12:05AM 26.9629 -149.6881 238° Southwest 429 494 36,000  Level FlightAware Transoceanic
12:06AM 26.8997 -149.8018 238° Southwest 429 494 36,000  Level FlightAware Transoceanic
12:07AM 26.8364 -149.9154 238° Southwest 429 494 36,000  Level FlightAware Transoceanic
12:08AM 26.7730 -150.0289 238° Southwest 429 494 36,000  Level FlightAware Transoceanic
12:09AM 26.7095 -150.1423 238° Southwest 429 494 36,000  Level FlightAware Transoceanic
12:10AM 26.6459 -150.2555 238° Southwest 429 494 36,000  Level FlightAware Transoceanic
12:11AM 26.5822 -150.3686 238° Southwest 429 494 36,000  Level FlightAware Transoceanic
12:12AM 26.5185 -150.4816 238° Southwest 429 494 36,000  Level FlightAware Transoceanic
12:13AM 26.4546 -150.5944 238° Southwest 429 494 36,000  Level FlightAware Transoceanic
12:14AM 26.3907 -150.7071 238° Southwest 429 494 36,000  Level FlightAware Transoceanic
12:15AM 26.3267 -150.8197 238° Southwest 429 494 36,000  Level FlightAware Transoceanic
12:16AM 26.2625 -150.9322 238° Southwest 429 494 36,000  Level FlightAware Transoceanic
12:17AM 26.1983 -151.0445 237° Southwest 429 494 36,000  Level FlightAware Transoceanic
12:18AM 26.1341 -151.1568 237° Southwest 429 494 36,000  Level FlightAware Transoceanic
12:19AM 26.0697 -151.2688 237° Southwest 429 494 36,000  Level FlightAware Transoceanic
12:20AM 26.0052 -151.3808 237° Southwest 429 494 36,000  Level FlightAware Transoceanic
12:21AM 25.9407 -151.4927 237° Southwest 429 494 36,000  Level FlightAware Transoceanic
12:22AM 25.8760 -151.6044 237° Southwest 429 494 36,000  Level FlightAware Transoceanic
12:23AM 25.8113 -151.7160 237° Southwest 429 494 36,000  Level FlightAware Transoceanic
12:24AM 25.7465 -151.8275 237° Southwest 429 494 36,000  Level FlightAware Transoceanic
12:25AM 25.6816 -151.9389 237° Southwest 429 494 36,000  Level FlightAware Transoceanic
12:26AM 25.6167 -152.0501 237° Southwest 429 494 36,000  Level FlightAware Transoceanic
12:27AM 25.5516 -152.1612 237° Southwest 429 494 36,000  Level FlightAware Transoceanic
12:28AM 25.4865 -152.2722 237° Southwest 429 494 36,000  Level FlightAware Transoceanic
12:29AM 25.4212 -152.3831 237° Southwest 429 494 36,000  Level FlightAware Transoceanic
12:30AM 25.3559 -152.4939 237° Southwest 429 494 36,000  Level FlightAware Transoceanic
12:31AM 25.2906 -152.6045 237° Southwest 429 494 36,000  Level FlightAware Transoceanic
12:32AM 25.2251 -152.7150 237° Southwest 429 494 36,000  Level FlightAware Transoceanic
12:33AM 25.1595 -152.8254 237° Southwest 429 494 36,000  Level FlightAware Transoceanic
12:34AM 25.0939 -152.9357 237° Southwest 429 494 36,000  Level FlightAware Transoceanic
12:35AM 25.0282 -153.0459 237° Southwest 429 494 36,000  Level FlightAware Transoceanic
12:36AM 24.9624 -153.1559 237° Southwest 429 494 36,000  Level FlightAware Transoceanic
12:37AM 24.8965 -153.2659 237° Southwest 429 494 36,000  Level FlightAware Transoceanic
12:38AM 24.8305 -153.3757 236° Southwest 429 494 36,000  Level FlightAware Transoceanic
12:39AM 24.7645 -153.4854 236° Southwest 429 494 36,000  Level FlightAware Transoceanic
12:40AM 24.6984 -153.5950 236° Southwest 429 494 36,000  Level FlightAware Transoceanic
12:41AM 24.6322 -153.7044 236° Southwest 429 494 36,000  Level FlightAware Transoceanic
12:42AM 24.5659 -153.8138 236° Southwest 429 494 36,000  Level FlightAware Transoceanic
12:43AM 24.4995 -153.9230 236° Southwest 429 494 36,000  Level FlightAware Transoceanic
12:44AM 24.4331 -154.0321 236° Southwest 429 494 36,000  Level FlightAware Transoceanic
12:45AM 24.3666 -154.1411 236° Southwest 429 494 36,000  Level FlightAware Transoceanic
12:46AM 24.3000 -154.2500 236° Southwest 429 494 36,000  Level FlightAware Transoceanic
12:47AM 24.2307 -154.3627 236° Southwest 429 494 36,000  Level FlightAware Transoceanic
12:48AM 24.1613 -154.4753 236° Southwest 429 494 36,000  Level FlightAware Transoceanic
12:49AM 24.0919 -154.5878 236° Southwest 429 494 36,000  Level FlightAware Transoceanic
12:50AM 24.0224 -154.7002 236° Southwest 429 494 36,000  Level FlightAware Transoceanic
12:50AM 24.0333 -154.6333 236° Southwest 450 518 36,000  Level Honolulu Center
12:51AM 23.9527 -154.8124 236° Southwest 429 494 36,000  Level FlightAware Transoceanic
12:51AM 23.9667 -154.7500 238° Southwest 460 529 36,000  Level Honolulu Center
12:52AM 23.8830 -154.9245 236° Southwest 429 494 36,000  Level FlightAware Transoceanic
12:52AM 23.8667 -154.8500 222° Southwest 460 529 36,000  Level Honolulu Center
12:53AM 23.8133 -155.0365 236° Southwest 429 494 36,000  Level FlightAware Transoceanic
12:53AM 23.7833 -154.9500 228° Southwest 460 529 36,000  Level Honolulu Center
12:54AM 23.7434 -155.1484 236° Southwest 429 494 36,000  Level FlightAware Transoceanic
12:54AM 23.6833 -155.0333 217° Southwest 460 529 36,000  Level Honolulu Center
12:55AM 23.6735 -155.2602 236° Southwest 429 494 36,000  Level FlightAware Transoceanic
12:55AM 23.6000 -155.1333 228° Southwest 450 518 36,000  Level Honolulu Center
12:56AM 23.5167 -155.2333 228° Southwest 450 518 36,000  Level Honolulu Center
12:57AM 23.4167 -155.3333 223° Southwest 450 518 36,000 960 Level Honolulu Center
12:58AM 23.3333 -155.4333 228° Southwest 450 518 38,000 960 Climbing Honolulu Center
12:59AM 23.2500 -155.5167 223° Southwest 450 518 38,000 -300 Level Honolulu Center
01:00AM 23.1667 -155.6167 228° Southwest 440 506 37,500 -360 Descending Honolulu Center
01:01AM 23.0667 -155.7167 223° Southwest 450 518 37,300 -240 Descending Honolulu Center
01:02AM 22.9833 -155.8167 228° Southwest 450 518 37,100 -240 Descending Honolulu Center
01:03AM 22.9000 -155.9167 228° Southwest 450 518 36,900 -180 Descending Honolulu Center
01:04AM 22.8000 -156.0000 218° Southwest 450 518 36,800 -180 Descending Honolulu Center
01:05AM 22.7167 -156.1000 228° Southwest 450 518 36,600 -240 Descending Honolulu Center
01:06AM 22.6167 -156.2000 223° Southwest 460 529 36,400 -240 Descending Honolulu Center
01:07AM 22.5333 -156.3000 228° Southwest 450 518 36,200 -240 Descending Honolulu Center
01:08AM 22.4333 -156.4000 223° Southwest 460 529 36,000 -1,380 Descending Honolulu Center
01:09AM 22.3333 -156.4833 218° Southwest 480 552 33,500 -2,700 Descending Honolulu Center
01:10AM 22.2333 -156.5667 218° Southwest 480 552 30,600 -2,520 Descending Honolulu Center
01:11AM 22.1167 -156.6667 218° Southwest 470 541 28,500 -1,980 Descending Honolulu Center
01:12AM 22.0333 -156.7500 223° Southwest 450 518 26,700 -1,980 Descending Honolulu Center
01:13AM 21.9500 -156.8333 223° Southwest 440 506 24,600 -2,040 Descending Honolulu Center
01:14AM 21.8833 -156.9333 234° Southwest 420 483 22,700 -1,800 Descending Honolulu Center
01:15AM 21.8000 -157.0167 223° Southwest 400 460 21,100 -1,920 Descending Honolulu Center
01:20AM 21.4190 -157.5030 223° Southwest 316 364 10,000 -1,800 Descending FlightAware
01:21AM 21.3820 -157.5340 218° Southwest 285 328 10,000 -660 Level FlightAware
01:21AM 21.3560 -157.5550 217° Southwest 279 321 9,400 -1,500 Descending FlightAware
01:22AM 21.3420 -157.5670 219° Southwest 276 318 9,000 -1,920 Descending FlightAware
01:22AM 21.3110 -157.5920 217° Southwest 273 314 8,000 -2,220 Descending FlightAware
01:23AM 21.2810 -157.6170 218° Southwest 269 310 7,000 -1,860 Descending FlightAware
01:23AM 21.2400 -157.6510 218° Southwest 265 305 5,700 -1,200 Descending FlightAware
01:24AM 21.2090 -157.6770 218° Southwest 259 298 5,400 -1,200 Descending FlightAware
01:25AM 21.1667 -157.7167 218° Southwest 230 265 4,000 -900 Descending Honolulu Center
01:26AM 21.2000 -157.7667 306° West 210 242 3,700 -600 Descending Honolulu Center
01:27AM 21.2333 -157.8000 317° Northwest 180 207 2,900 -1,080 Descending Honolulu Center
01:28AM 21.2667 -157.8500 306° West 150 173 1,600 -1,200 Descending Honolulu Center
01:29AM 21.3000 -157.8667 335° Northwest 140 161 600 -1,020 Descending Honolulu Center